createdAt,value
2022-10-06T00:00:15.777Z,100.00
2022-10-06T00:02:43.561Z,100.00
2022-10-06T00:05:12.956Z,100.00
2022-10-06T00:07:40.763Z,100.00
2022-10-06T00:10:09.955Z,100.00
2022-10-06T00:12:41.829Z,100.00
2022-10-06T00:15:11.585Z,100.00
2022-10-06T00:17:39.360Z,100.00
2022-10-06T00:20:08.698Z,100.00
2022-10-06T00:22:38.692Z,100.00
2022-10-06T00:25:07.370Z,100.00
2022-10-06T00:27:36.041Z,100.00
2022-10-06T00:30:03.995Z,100.00
2022-10-06T00:32:31.683Z,100.00
2022-10-06T00:34:59.649Z,100.00
2022-10-06T00:37:28.176Z,100.00
2022-10-06T00:39:57.249Z,100.00
2022-10-06T00:42:26.863Z,99.02
2022-10-06T00:44:54.746Z,89.30
2022-10-06T00:47:24.423Z,86.15
2022-10-06T00:49:52.409Z,81.72
2022-10-06T00:52:21.548Z,95.43
2022-10-06T00:54:49.347Z,97.81
2022-10-06T00:57:18.782Z,81.93
2022-10-06T00:59:46.672Z,100.00
2022-10-06T01:02:19.354Z,99.08
2022-10-06T01:04:50.721Z,92.68
2022-10-06T01:07:18.547Z,100.00
2022-10-06T01:09:46.588Z,100.00
2022-10-06T01:12:14.795Z,100.00
2022-10-06T01:14:44.231Z,100.00
2022-10-06T01:17:17.188Z,88.51
2022-10-06T01:19:49.814Z,99.50
2022-10-06T01:22:19.693Z,100.00
2022-10-06T01:24:52.549Z,100.00
2022-10-06T01:27:21.609Z,92.53
2022-10-06T01:29:52.584Z,92.40
2022-10-06T01:32:20.461Z,95.62
2022-10-06T01:34:48.248Z,89.83
2022-10-06T01:37:16.558Z,84.00
2022-10-06T01:39:45.567Z,95.40
2022-10-06T01:42:14.999Z,98.84
2022-10-06T01:44:42.736Z,100.00
2022-10-06T01:47:10.560Z,100.00
2022-10-06T01:49:38.331Z,100.00
2022-10-06T01:52:06.112Z,100.00
2022-10-06T01:54:34.011Z,100.00
2022-10-06T01:57:02.862Z,100.00
2022-10-06T01:59:32.662Z,94.88
2022-10-06T02:02:00.563Z,100.00
2022-10-06T02:04:28.419Z,100.00
2022-10-06T02:06:56.381Z,100.00
2022-10-06T02:09:24.352Z,100.00
2022-10-06T02:11:53.576Z,100.00
2022-10-06T02:14:21.317Z,100.00
2022-10-06T02:16:50.738Z,100.00
2022-10-06T02:19:18.602Z,100.00
2022-10-06T02:21:46.315Z,100.00
2022-10-06T02:24:14.011Z,100.00
2022-10-06T02:26:41.963Z,100.00
2022-10-06T02:29:09.756Z,100.00
2022-10-06T02:31:37.492Z,92.42
2022-10-06T02:34:06.567Z,100.00
2022-10-06T02:36:35.237Z,100.00
2022-10-06T02:39:03.380Z,87.24
2022-10-06T02:41:32.652Z,100.00
2022-10-06T02:44:00.980Z,100.00
2022-10-06T02:46:29.974Z,100.00
2022-10-06T02:48:57.760Z,91.86
2022-10-06T02:51:26.976Z,97.43
2022-10-06T02:53:55.333Z,92.54
2022-10-06T02:56:24.700Z,86.87
2022-10-06T02:58:53.154Z,82.47
2022-10-06T03:01:33.323Z,89.50
2022-10-06T03:04:11.635Z,99.92
2022-10-06T03:06:42.770Z,96.39
2022-10-06T03:09:19.334Z,100.00
2022-10-06T03:11:47.229Z,100.00
2022-10-06T03:14:25.798Z,94.38
2022-10-06T03:16:54.981Z,100.00
2022-10-06T03:19:26.671Z,96.13
2022-10-06T03:21:56.380Z,95.27
2022-10-06T03:24:32.739Z,90.58
2022-10-06T03:27:01.036Z,100.00
2022-10-06T03:29:31.003Z,100.00
2022-10-06T03:31:59.053Z,92.81
2022-10-06T03:34:27.168Z,87.75
2022-10-06T03:36:57.688Z,94.17
2022-10-06T03:39:27.526Z,86.27
2022-10-06T03:41:55.393Z,90.25
2022-10-06T03:44:23.166Z,90.43
2022-10-06T03:46:51.316Z,94.36
2022-10-06T03:49:19.897Z,100.00
2022-10-06T03:51:48.167Z,100.00
2022-10-06T03:54:27.365Z,100.00
2022-10-06T03:56:55.491Z,100.00
2022-10-06T03:59:23.272Z,100.00
2022-10-06T04:01:52.972Z,100.00
2022-10-06T04:04:27.364Z,100.00
2022-10-06T04:07:00.543Z,100.00
2022-10-06T04:09:29.904Z,100.00
2022-10-06T04:11:58.207Z,100.00
2022-10-06T04:14:26.632Z,100.00
2022-10-06T04:16:57.080Z,100.00
2022-10-06T04:19:36.981Z,100.00
2022-10-06T04:22:04.911Z,100.00
2022-10-06T04:24:35.044Z,100.00
2022-10-06T04:27:17.217Z,100.00
2022-10-06T04:29:50.589Z,100.00
2022-10-06T04:32:18.401Z,97.32
2022-10-06T04:34:46.393Z,97.29
2022-10-06T04:37:14.544Z,85.34
2022-10-06T04:39:44.925Z,71.80
2022-10-06T04:42:16.203Z,75.20
2022-10-06T04:44:44.891Z,79.31
2022-10-06T04:47:12.622Z,65.64
2022-10-06T04:49:40.464Z,68.04
2022-10-06T04:52:09.306Z,70.41
2022-10-06T04:54:39.297Z,71.66
2022-10-06T04:57:10.133Z,62.80
2022-10-06T04:59:55.577Z,55.02
2022-10-06T05:02:24.610Z,58.27
2022-10-06T05:04:56.042Z,61.91
2022-10-06T05:07:24.836Z,67.87
2022-10-06T05:09:53.884Z,61.32
2022-10-06T05:12:22.988Z,65.66
2022-10-06T05:14:51.313Z,70.52
2022-10-06T05:17:19.064Z,71.47
2022-10-06T05:19:47.891Z,68.91
2022-10-06T05:22:15.629Z,66.63
2022-10-06T05:24:43.360Z,60.68
2022-10-06T05:27:12.153Z,58.82
2022-10-06T05:29:41.993Z,54.50
2022-10-06T05:32:10.713Z,56.31
2022-10-06T05:34:38.751Z,55.98
2022-10-06T05:37:07.159Z,60.25
2022-10-06T05:39:35.972Z,57.48
2022-10-06T05:42:03.816Z,60.73
2022-10-06T05:44:32.571Z,64.56
2022-10-06T05:47:04.850Z,56.77
2022-10-06T05:49:32.807Z,61.59
2022-10-06T05:52:03.853Z,58.77
2022-10-06T05:54:34.662Z,55.20
2022-10-06T05:57:03.329Z,63.66
2022-10-06T05:59:33.416Z,64.84
2022-10-06T06:02:02.323Z,61.26
2022-10-06T06:07:10.830Z,59.72
2022-10-06T06:09:40.746Z,75.14
2022-10-06T06:12:08.542Z,59.92
2022-10-06T06:15:07.731Z,68.03
2022-10-06T06:17:40.739Z,64.95
2022-10-06T06:20:10.900Z,82.59
2022-10-06T06:22:38.666Z,72.15
2022-10-06T06:25:08.394Z,70.10
2022-10-06T06:27:36.686Z,60.46
2022-10-06T06:30:06.101Z,62.50
2022-10-06T06:32:35.725Z,64.90
2022-10-06T06:35:04.449Z,71.18
2022-10-06T06:37:34.428Z,65.80
2022-10-06T06:40:02.923Z,68.80
2022-10-06T06:42:34.770Z,68.89
2022-10-06T06:45:37.908Z,60.65
2022-10-06T06:48:26.274Z,60.37
2022-10-06T06:50:58.524Z,69.86
2022-10-06T06:53:28.489Z,63.41
2022-10-06T06:55:59.060Z,63.87
2022-10-06T06:58:27.447Z,62.64
2022-10-06T07:00:55.953Z,58.26
2022-10-06T07:03:52.096Z,67.64
2022-10-06T07:06:16.256Z,79.36
2022-10-06T07:08:48.714Z,80.34
2022-10-06T07:11:19.605Z,74.24
2022-10-06T07:13:48.572Z,70.15
2022-10-06T07:16:35.304Z,58.80
2022-10-06T07:19:24.999Z,71.79
2022-10-06T07:22:12.162Z,83.54
2022-10-06T07:24:59.100Z,83.08
2022-10-06T07:27:28.121Z,77.34
2022-10-06T07:29:56.748Z,73.23
2022-10-06T07:32:26.290Z,68.02
2022-10-06T07:34:54.799Z,89.67
2022-10-06T07:37:24.096Z,69.76
2022-10-06T07:39:53.535Z,69.43
2022-10-06T07:42:21.657Z,74.85
2022-10-06T07:45:09.589Z,77.17
2022-10-06T07:47:40.105Z,77.01
2022-10-06T07:50:08.877Z,76.72
2022-10-06T07:52:39.316Z,71.11
2022-10-06T07:55:09.415Z,71.16
2022-10-06T07:57:46.071Z,55.58
2022-10-06T08:00:15.676Z,61.26
2022-10-06T08:02:43.488Z,59.87
2022-10-06T08:05:11.513Z,59.67
2022-10-06T08:07:39.213Z,57.89
2022-10-06T08:10:09.232Z,62.89
2022-10-06T08:12:39.997Z,69.46
2022-10-06T08:15:11.335Z,72.72
2022-10-06T08:17:39.333Z,58.52
2022-10-06T08:20:09.022Z,63.61
2022-10-06T08:22:38.646Z,67.12
2022-10-06T08:25:07.507Z,58.42
2022-10-06T08:27:40.386Z,57.91
2022-10-06T08:30:08.987Z,57.71
2022-10-06T08:32:37.355Z,57.44
2022-10-06T08:35:05.699Z,61.70
2022-10-06T08:37:33.468Z,57.82
2022-10-06T08:40:01.744Z,54.60
2022-10-06T08:42:38.086Z,57.02
2022-10-06T08:45:07.783Z,55.29
2022-10-06T08:47:37.087Z,52.20
2022-10-06T08:50:06.681Z,50.34
2022-10-06T08:52:43.595Z,50.93
2022-10-06T08:55:19.733Z,46.64
2022-10-06T08:57:56.646Z,48.21
2022-10-06T09:00:24.535Z,47.99
2022-10-06T09:05:25.257Z,44.36
2022-10-06T09:08:02.384Z,44.20
2022-10-06T09:10:42.214Z,44.98
2022-10-06T09:13:17.358Z,44.81
2022-10-06T09:15:51.425Z,42.59
2022-10-06T09:18:22.362Z,45.89
2022-10-06T09:20:53.604Z,45.32
2022-10-06T09:23:42.622Z,46.49
2022-10-06T09:26:13.488Z,47.08
2022-10-06T09:28:46.138Z,43.53
2022-10-06T09:31:22.725Z,43.15
2022-10-06T09:33:53.532Z,42.39
2022-10-06T09:36:21.495Z,40.53
2022-10-06T09:38:55.216Z,42.63
2022-10-06T09:41:25.913Z,42.16
2022-10-06T09:43:59.817Z,44.73
2022-10-06T09:46:33.702Z,42.00
2022-10-06T09:49:16.214Z,44.22
2022-10-06T09:52:00.100Z,42.20
2022-10-06T09:54:29.739Z,42.86
2022-10-06T09:57:00.147Z,44.54
2022-10-06T09:59:39.113Z,44.64
2022-10-06T10:02:24.881Z,44.86
2022-10-06T10:04:55.065Z,44.77
2022-10-06T10:07:24.832Z,45.90
2022-10-06T10:09:52.752Z,42.43
2022-10-06T10:12:31.165Z,40.72
2022-10-06T10:15:04.039Z,42.85
2022-10-06T10:17:36.488Z,41.85
2022-10-06T10:20:08.991Z,42.35
2022-10-06T10:22:38.635Z,43.04
2022-10-06T10:25:15.679Z,39.96
2022-10-06T10:27:52.280Z,40.30
2022-10-06T10:30:21.673Z,39.10
2022-10-06T10:32:54.926Z,40.87
2022-10-06T10:35:26.191Z,40.03
2022-10-06T10:37:59.490Z,35.92
2022-10-06T10:40:34.105Z,40.36
2022-10-06T10:43:07.399Z,40.13
2022-10-06T10:45:41.182Z,37.81
2022-10-06T10:48:14.348Z,40.49
2022-10-06T10:50:50.186Z,38.75
2022-10-06T10:53:22.272Z,40.28
2022-10-06T10:55:51.453Z,40.00
2022-10-06T10:58:22.089Z,40.91
2022-10-06T11:00:54.685Z,38.76
2022-10-06T11:03:22.502Z,38.76
2022-10-06T11:06:16.901Z,41.23
2022-10-06T11:08:49.459Z,40.89
2022-10-06T11:11:21.554Z,38.69
2022-10-06T11:13:52.657Z,37.93
2022-10-06T11:16:29.656Z,37.83
2022-10-06T11:19:11.782Z,36.97
2022-10-06T11:21:44.565Z,37.86
2022-10-06T11:24:16.302Z,36.12
2022-10-06T11:26:59.794Z,35.61
2022-10-06T11:29:35.872Z,39.24
2022-10-06T11:32:13.326Z,39.46
2022-10-06T11:34:42.004Z,38.98
2022-10-06T11:37:19.683Z,38.66
2022-10-06T11:39:52.314Z,38.00
2022-10-06T11:42:24.938Z,39.61
2022-10-06T11:44:59.272Z,35.94
2022-10-06T11:47:35.346Z,35.72
2022-10-06T11:50:04.209Z,36.72
2022-10-06T11:52:56.332Z,35.32
2022-10-06T11:55:26.331Z,33.86
2022-10-06T11:58:29.706Z,32.76
2022-10-06T12:00:56.604Z,31.87
2022-10-06T12:04:13.265Z,32.24
2022-10-06T12:07:05.388Z,32.03
2022-10-06T12:09:51.716Z,32.62
2022-10-06T12:12:41.292Z,33.29
2022-10-06T12:18:15.709Z,31.25
2022-10-06T12:20:54.812Z,32.96
2022-10-06T12:23:34.558Z,31.47
2022-10-06T12:26:06.323Z,30.57
2022-10-06T12:28:37.227Z,30.38
2022-10-06T12:31:21.562Z,27.93
2022-10-06T12:33:50.504Z,28.17
2022-10-06T12:36:21.528Z,28.41
2022-10-06T12:39:05.867Z,29.44
2022-10-06T12:41:59.150Z,28.87
2022-10-06T12:44:28.527Z,28.25
2022-10-06T12:46:59.208Z,27.87
2022-10-06T12:49:41.345Z,27.64
2022-10-06T12:52:18.471Z,28.78
2022-10-06T12:54:50.793Z,27.70
2022-10-06T12:57:20.634Z,27.54
2022-10-06T12:59:49.414Z,25.96
2022-10-06T13:02:20.360Z,26.57
2022-10-06T13:04:52.850Z,27.33
2022-10-06T13:07:23.781Z,27.50
2022-10-06T13:09:52.708Z,28.18
2022-10-06T13:12:29.193Z,27.33
2022-10-06T13:15:17.518Z,24.54
2022-10-06T13:17:47.276Z,25.64
2022-10-06T13:20:20.904Z,25.96
2022-10-06T13:22:57.948Z,25.77
2022-10-06T13:25:26.051Z,25.26
2022-10-06T13:27:53.813Z,24.89
2022-10-06T13:30:23.659Z,24.38
2022-10-06T13:32:53.619Z,24.52
2022-10-06T13:35:23.601Z,24.87
2022-10-06T13:37:51.976Z,24.97
2022-10-06T13:40:45.656Z,26.06
2022-10-06T13:43:18.155Z,25.29
2022-10-06T13:45:48.280Z,25.46
2022-10-06T13:48:18.354Z,26.21
2022-10-06T13:50:47.143Z,24.06
2022-10-06T13:53:27.547Z,23.85
2022-10-06T13:55:57.009Z,23.31
2022-10-06T13:58:27.877Z,22.35
2022-10-06T14:00:57.690Z,25.87
2022-10-06T14:03:28.305Z,24.25
2022-10-06T14:06:09.596Z,23.00
2022-10-06T14:08:37.664Z,23.02
2022-10-06T14:11:08.397Z,23.14
2022-10-06T14:13:42.803Z,25.49
2022-10-06T14:16:19.363Z,25.69
2022-10-06T14:21:35.549Z,25.83
2022-10-06T14:24:07.554Z,25.41
2022-10-06T14:26:41.604Z,26.26
2022-10-06T14:29:10.309Z,25.62
2022-10-06T14:31:38.302Z,25.70
2022-10-06T14:34:13.941Z,22.36
2022-10-06T14:36:42.599Z,21.83
2022-10-06T14:39:12.962Z,24.81
2022-10-06T14:41:42.301Z,23.77
2022-10-06T14:44:12.227Z,22.11
2022-10-06T14:46:41.930Z,21.88
2022-10-06T14:49:11.270Z,22.61
2022-10-06T14:51:40.248Z,22.39
2022-10-06T14:54:10.429Z,22.57
2022-10-06T14:56:39.310Z,22.31
2022-10-06T14:59:09.532Z,20.67
2022-10-06T15:01:40.287Z,19.92
2022-10-06T15:04:10.189Z,22.99
2022-10-06T15:06:55.451Z,24.01
2022-10-06T15:09:23.747Z,24.30
2022-10-06T15:11:52.096Z,23.91
2022-10-06T15:14:22.381Z,23.84
2022-10-06T15:16:51.065Z,20.99
2022-10-06T15:19:18.942Z,21.34
2022-10-06T15:21:47.001Z,22.74
2022-10-06T15:24:16.378Z,21.48
2022-10-06T15:27:02.032Z,22.80
2022-10-06T15:29:31.472Z,23.04
2022-10-06T15:32:00.306Z,21.79
2022-10-06T15:34:30.422Z,24.18
2022-10-06T15:36:58.860Z,24.70
2022-10-06T15:39:28.067Z,23.67
2022-10-06T15:41:55.813Z,25.85
2022-10-06T15:44:23.650Z,25.08
2022-10-06T15:46:53.933Z,24.72
2022-10-06T15:49:22.885Z,23.65
2022-10-06T15:51:53.535Z,25.58
2022-10-06T15:54:23.675Z,25.25
2022-10-06T15:56:52.723Z,25.91
2022-10-06T15:59:22.574Z,25.45
2022-10-06T16:01:53.188Z,24.31
2022-10-06T16:04:31.126Z,24.75
2022-10-06T16:06:59.191Z,24.89
2022-10-06T16:09:28.176Z,26.09
2022-10-06T16:11:56.893Z,27.01
2022-10-06T16:14:25.531Z,27.47
2022-10-06T16:16:59.134Z,29.36
2022-10-06T16:19:27.925Z,30.15
2022-10-06T16:21:58.981Z,30.58
2022-10-06T16:24:27.477Z,30.76
2022-10-06T16:26:57.225Z,30.66
2022-10-06T16:29:25.102Z,30.91
2022-10-06T16:31:54.262Z,30.52
2022-10-06T16:34:22.476Z,30.55
2022-10-06T16:36:50.243Z,31.71
2022-10-06T16:39:20.052Z,31.24
2022-10-06T16:41:48.232Z,31.57
2022-10-06T16:44:16.161Z,31.99
2022-10-06T16:46:44.106Z,33.33
2022-10-06T16:49:13.411Z,32.95
2022-10-06T16:51:42.432Z,32.17
2022-10-06T16:54:11.817Z,33.30
2022-10-06T16:56:40.957Z,33.09
2022-10-06T16:59:13.084Z,33.41
2022-10-06T17:01:40.972Z,33.56
2022-10-06T17:04:09.865Z,33.70
2022-10-06T17:06:40.353Z,33.94
2022-10-06T17:09:10.015Z,35.29
2022-10-06T17:11:38.186Z,34.29
2022-10-06T17:14:06.195Z,35.13
2022-10-06T17:16:35.524Z,36.18
2022-10-06T17:19:04.010Z,35.28
2022-10-06T17:21:45.757Z,35.43
2022-10-06T17:24:17.550Z,36.14
2022-10-06T17:26:47.182Z,36.76
2022-10-06T17:29:18.205Z,36.27
2022-10-06T17:31:46.376Z,36.75
2022-10-06T17:34:20.442Z,37.05
2022-10-06T17:36:50.991Z,36.80
2022-10-06T17:39:22.533Z,39.70
2022-10-06T17:41:51.387Z,40.65
2022-10-06T17:44:22.762Z,38.51
2022-10-06T17:46:52.569Z,37.87
2022-10-06T17:49:21.787Z,39.28
2022-10-06T17:51:51.716Z,37.87
2022-10-06T17:54:22.790Z,38.43
2022-10-06T17:56:52.553Z,38.06
2022-10-06T17:59:22.386Z,38.33
2022-10-06T18:01:52.130Z,37.99
2022-10-06T18:04:20.581Z,37.79
2022-10-06T18:06:48.958Z,38.02
2022-10-06T18:09:16.961Z,39.15
2022-10-06T18:11:48.279Z,38.42
2022-10-06T18:14:17.323Z,39.17
2022-10-06T18:16:46.319Z,38.72
2022-10-06T18:19:16.041Z,39.20
2022-10-06T18:21:45.493Z,39.55
2022-10-06T18:24:16.058Z,39.09
2022-10-06T18:26:44.083Z,39.55
2022-10-06T18:29:13.118Z,39.59
2022-10-06T18:31:40.900Z,38.78
2022-10-06T18:37:01.741Z,38.56
2022-10-06T18:39:31.352Z,39.67
2022-10-06T18:42:02.663Z,40.71
2022-10-06T18:44:49.521Z,41.23
2022-10-06T18:47:40.459Z,40.76
2022-10-06T18:50:08.711Z,40.57
2022-10-06T18:52:36.394Z,41.10
2022-10-06T18:55:04.167Z,40.96
2022-10-06T18:57:32.557Z,41.15
2022-10-06T19:00:01.674Z,41.46
2022-10-06T19:02:29.382Z,41.91
2022-10-06T19:04:57.159Z,41.75
2022-10-06T19:07:25.056Z,42.82
2022-10-06T19:09:52.767Z,42.49
2022-10-06T19:12:20.516Z,41.84
2022-10-06T19:14:48.176Z,42.70
2022-10-06T19:17:17.300Z,44.40
2022-10-06T19:19:47.955Z,43.68
2022-10-06T19:22:16.155Z,43.11
2022-10-06T19:24:45.425Z,43.29
2022-10-06T19:27:16.361Z,42.74
2022-10-06T19:29:46.882Z,43.21
2022-10-06T19:32:17.882Z,42.95
2022-10-06T19:34:46.804Z,44.79
2022-10-06T19:37:14.911Z,44.30
2022-10-06T19:39:44.935Z,44.46
2022-10-06T19:42:30.637Z,44.18
2022-10-06T19:44:58.640Z,43.80
2022-10-06T19:47:28.471Z,44.30
2022-10-06T19:50:02.184Z,46.03
2022-10-06T19:52:32.238Z,45.42
2022-10-06T19:55:00.715Z,45.05
2022-10-06T19:57:29.286Z,44.18
2022-10-06T19:59:57.087Z,44.19
2022-10-06T20:02:24.784Z,44.88
2022-10-06T20:04:53.875Z,44.21
2022-10-06T20:07:25.323Z,44.96
2022-10-06T20:09:53.202Z,44.63
2022-10-06T20:12:24.602Z,45.14
2022-10-06T20:14:53.743Z,45.80
2022-10-06T20:17:22.186Z,44.58
2022-10-06T20:19:53.931Z,44.61
2022-10-06T20:22:26.369Z,43.66
2022-10-06T20:24:54.176Z,45.46
2022-10-06T20:27:21.907Z,45.67
2022-10-06T20:29:49.613Z,45.56
2022-10-06T20:32:17.322Z,45.46
2022-10-06T20:34:45.321Z,45.38
2022-10-06T20:37:13.026Z,45.44
2022-10-06T20:39:59.471Z,45.28
2022-10-06T20:42:27.929Z,45.44
2022-10-06T20:44:55.652Z,45.73
2022-10-06T20:47:23.538Z,46.15
2022-10-06T20:49:54.924Z,45.93
2022-10-06T20:52:23.144Z,45.83
2022-10-06T20:54:52.259Z,46.52
2022-10-06T20:57:20.043Z,46.59
2022-10-06T20:59:49.067Z,51.51
2022-10-06T21:02:16.946Z,49.04
2022-10-06T21:04:45.106Z,48.03
2022-10-06T21:07:12.883Z,47.43
2022-10-06T21:09:40.673Z,49.37
2022-10-06T21:12:09.863Z,49.44
2022-10-06T21:14:37.884Z,50.71
2022-10-06T21:17:06.729Z,49.74
2022-10-06T21:19:37.691Z,49.33
2022-10-06T21:22:06.122Z,49.71
2022-10-06T21:24:33.888Z,48.88
2022-10-06T21:27:02.027Z,48.17
2022-10-06T21:29:31.153Z,48.51
2022-10-06T21:31:59.679Z,49.07
2022-10-06T21:34:27.473Z,49.36
2022-10-06T21:36:55.242Z,50.67
2022-10-06T21:39:22.992Z,50.89
2022-10-06T21:41:50.733Z,51.23
2022-10-06T21:44:19.459Z,51.38
2022-10-06T21:46:49.712Z,57.06
2022-10-06T21:49:19.133Z,62.12
2022-10-06T21:51:48.482Z,57.29
2022-10-06T21:54:16.964Z,54.22
2022-10-06T21:56:44.864Z,53.22
2022-10-06T21:59:13.214Z,64.70
2022-10-06T22:01:42.547Z,58.09
2022-10-06T22:04:12.946Z,54.48
2022-10-06T22:06:41.211Z,57.74
2022-10-06T22:09:10.308Z,63.64
2022-10-06T22:11:40.971Z,56.44
2022-10-06T22:14:11.848Z,55.10
2022-10-06T22:16:39.933Z,55.00
2022-10-06T22:19:09.004Z,56.41
2022-10-06T22:21:39.546Z,55.14
2022-10-06T22:24:08.710Z,62.25
2022-10-06T22:26:38.289Z,69.74
2022-10-06T22:29:07.089Z,64.76
2022-10-06T22:31:35.170Z,59.62
2022-10-06T22:34:05.379Z,64.66
2022-10-06T22:36:33.725Z,66.39
2022-10-06T22:39:03.388Z,59.06
2022-10-06T22:41:31.246Z,80.09
2022-10-06T22:44:00.049Z,84.98
2022-10-06T22:46:29.922Z,65.54
2022-10-06T22:48:57.779Z,61.03
2022-10-06T22:51:26.061Z,79.07
2022-10-06T22:53:57.892Z,78.92
2022-10-06T22:56:28.330Z,69.67
2022-10-06T22:58:59.371Z,64.18
2022-10-06T23:01:27.740Z,60.74
2022-10-06T23:03:55.837Z,60.46
2022-10-06T23:06:24.515Z,62.85
2022-10-06T23:08:52.293Z,68.82
2022-10-06T23:11:21.945Z,61.22
2022-10-06T23:13:52.965Z,59.02
2022-10-06T23:16:21.472Z,63.44
2022-10-06T23:18:49.533Z,59.71
2022-10-06T23:21:21.708Z,60.65
2022-10-06T23:23:51.134Z,59.33
2022-10-06T23:26:19.933Z,61.32
2022-10-06T23:28:53.161Z,63.50
2022-10-06T23:31:21.066Z,64.03
2022-10-06T23:33:49.112Z,75.23
2022-10-06T23:36:17.764Z,75.49
2022-10-06T23:38:45.996Z,63.76
2022-10-06T23:41:14.291Z,62.07
2022-10-06T23:43:42.158Z,62.16
2022-10-06T23:46:11.563Z,67.99
2022-10-06T23:48:39.428Z,73.23
2022-10-06T23:51:08.987Z,86.86
2022-10-06T23:53:36.842Z,71.10
2022-10-06T23:56:05.129Z,98.45
2022-10-06T23:58:32.878Z,86.01
